Time;durP1;ratioP1;P1;durP2;ratioP2;P2;SDS_P1;SDS_P2;PMS_P1;PMS_P2;Temp;Humidity;BMP_temperature;BMP_pressure;BME280_temperature;BME280_humidity;BME280_pressure;Samples;Min_cycle;Max_cycle;Signal;HPM_P1;HPM_P2
2022/04/18 05:19:33;;;;;;;0.50;0.50;;;5.70;99.90;;;;;;5588752;23;20263;-66
2022/04/18 05:21:59;;;;;;;0.60;0.60;;;6.60;99.90;;;;;;4937860;29;20307;-66
2022/04/18 05:24:26;;;;;;;0.60;0.60;;;7.40;99.90;;;;;;4937933;29;20243;-66
2022/04/18 05:26:53;;;;;;;0.63;0.63;;;8.20;99.90;;;;;;4936981;29;20287;-66
2022/04/18 05:29:20;;;;;;;0.70;0.70;;;9.00;97.60;;;;;;4931680;29;20361;-66
2022/04/18 05:31:47;;;;;;;1.02;0.70;;;9.80;91.70;;;;;;4917758;29;20293;-66
2022/04/18 05:34:14;;;;;;;0.60;0.60;;;10.50;79.40;;;;;;4917971;29;20638;-64
2022/04/18 05:36:42;;;;;;;0.60;0.60;;;11.10;77.30;;;;;;4917059;29;20268;-64
2022/04/18 05:39:09;;;;;;;0.75;0.75;;;11.70;71.30;;;;;;4917426;29;20264;-65
2022/04/18 05:41:35;;;;;;;0.60;0.60;;;12.20;69.20;;;;;;4917438;29;20297;-64
2022/04/18 05:44:02;;;;;;;0.60;0.60;;;12.80;65.90;;;;;;4917035;29;20670;-64
2022/04/18 05:46:29;;;;;;;0.82;0.75;;;13.50;54.40;;;;;;4917034;29;20301;-64
2022/04/18 05:48:56;;;;;;;0.77;0.77;;;14.30;57.00;;;;;;4917222;29;20231;-65
2022/04/18 05:51:23;;;;;;;0.95;0.95;;;15.40;52.90;;;;;;4916964;29;20685;-65
2022/04/18 05:53:51;;;;;;;2.25;2.15;;;16.60;51.00;;;;;;4916973;29;20256;-65
2022/04/18 05:56:18;;;;;;;1.98;1.98;;;17.70;47.20;;;;;;4917154;29;20753;-64
2022/04/18 05:58:44;;;;;;;1.95;1.83;;;18.90;38.70;;;;;;4917140;29;20300;-65
2022/04/18 06:01:11;;;;;;;1.20;1.10;;;19.80;37.20;;;;;;4917207;29;20215;-65
2022/04/18 06:03:39;;;;;;;1.13;1.10;;;20.70;30.20;;;;;;4917211;29;20255;-65
2022/04/18 06:06:06;;;;;;;1.08;1.08;;;21.50;33.70;;;;;;4917102;29;20205;-65
2022/04/18 06:08:33;;;;;;;1.13;1.13;;;22.20;30.80;;;;;;4917135;29;20254;-65
2022/04/18 06:11:01;;;;;;;1.15;1.15;;;22.60;31.00;;;;;;4918826;29;20282;-65
2022/04/18 06:13:28;;;;;;;1.45;1.35;;;22.80;28.50;;;;;;4921083;29;20236;-65
2022/04/18 06:15:54;;;;;;;1.10;1.10;;;22.00;28.30;;;;;;4920665;29;20296;-65
2022/04/18 06:18:21;;;;;;;1.50;1.20;;;21.30;27.80;;;;;;4920836;29;20315;-65
2022/04/18 06:20:48;;;;;;;1.25;1.25;;;21.10;28.80;;;;;;4920574;29;20243;-65
2022/04/18 06:23:15;;;;;;;0.90;0.88;;;21.90;28.20;;;;;;4920531;29;20570;-65
2022/04/18 06:25:42;;;;;;;1.45;1.40;;;22.30;27.30;;;;;;4920528;29;20208;-65
2022/04/18 06:28:12;;;;;;;1.10;1.10;;;21.90;27.90;;;;;;4920972;29;20204;-65
2022/04/18 06:30:38;;;;;;;1.15;1.05;;;22.00;27.90;;;;;;4920725;29;20229;-65
2022/04/18 06:33:06;;;;;;;1.35;1.25;;;21.30;29.10;;;;;;4920648;29;20200;-65
2022/04/18 06:35:33;;;;;;;1.08;0.90;;;21.30;29.70;;;;;;4920587;29;20252;-66
2022/04/18 06:37:59;;;;;;;1.02;1.02;;;21.60;28.20;;;;;;4920111;29;20227;-66
2022/04/18 06:40:26;;;;;;;1.10;1.10;;;21.90;28.40;;;;;;4920464;29;20311;-67
2022/04/18 06:42:53;;;;;;;1.00;1.00;;;22.90;29.50;;;;;;4920476;29;20251;-67
2022/04/18 06:45:21;;;;;;;1.40;1.27;;;23.50;33.80;;;;;;4920422;29;20295;-67
2022/04/18 06:47:48;;;;;;;0.70;0.70;;;24.80;33.00;;;;;;4920106;29;20321;-68
2022/04/18 06:50:15;;;;;;;0.70;0.70;;;25.40;31.50;;;;;;4920820;29;20316;-68
2022/04/18 06:52:44;;;;;;;0.95;0.90;;;26.20;37.60;;;;;;4921248;29;20292;-67
2022/04/18 06:55:11;;;;;;;0.98;0.98;;;26.90;37.60;;;;;;4921261;29;20257;-67
2022/04/18 06:57:37;;;;;;;1.23;1.15;;;26.10;37.00;;;;;;4920369;29;20580;-68
2022/04/18 07:00:05;;;;;;;1.17;1.17;;;25.30;36.10;;;;;;4920250;29;20731;-68
2022/04/18 07:02:33;;;;;;;0.80;0.80;;;25.30;35.50;;;;;;4920121;29;20205;-68
2022/04/18 07:05:00;;;;;;;1.30;1.30;;;24.90;35.60;;;;;;4920672;29;20205;-68
2022/04/18 07:07:27;;;;;;;0.90;0.90;;;24.70;35.80;;;;;;4920354;29;20200;-67
2022/04/18 07:09:54;;;;;;;1.10;1.10;;;24.50;36.20;;;;;;4920046;29;20704;-67
2022/04/18 07:12:22;;;;;;;1.25;1.20;;;24.90;35.70;;;;;;4919887;29;20668;-68
2022/04/18 07:14:49;;;;;;;1.40;1.20;;;24.80;35.70;;;;;;4919797;29;20670;-67
2022/04/18 07:17:15;;;;;;;1.08;1.08;;;24.30;31.90;;;;;;4919807;29;20221;-67
2022/04/18 07:19:44;;;;;;;1.33;1.23;;;23.30;33.10;;;;;;4919978;29;20228;-67
2022/04/18 07:22:10;;;;;;;1.38;1.30;;;24.00;31.60;;;;;;4919530;29;20300;-67
2022/04/18 07:24:37;;;;;;;1.40;1.10;;;21.70;32.00;;;;;;4924057;29;20228;-66
2022/04/18 07:27:05;;;;;;;1.00;1.00;;;19.30;33.50;;;;;;4924684;29;20204;-67
2022/04/18 07:29:33;;;;;;;1.17;1.10;;;18.00;35.60;;;;;;4926770;29;20685;-67
2022/04/18 07:32:00;;;;;;;1.33;1.25;;;18.90;35.10;;;;;;4926269;29;20212;-66
2022/04/18 07:34:29;;;;;;;1.23;1.10;;;17.90;34.70;;;;;;4928374;29;20215;-67
2022/04/18 07:36:58;;;;;;;1.75;1.40;;;17.70;36.20;;;;;;4926709;29;20225;-67
2022/04/18 07:39:25;;;;;;;1.40;1.20;;;17.80;36.00;;;;;;4926631;29;20221;-66
2022/04/18 07:41:53;;;;;;;1.75;1.35;;;17.80;36.60;;;;;;4925616;29;20204;-67
2022/04/18 07:44:22;;;;;;;2.22;1.60;;;18.70;35.80;;;;;;4924990;29;20272;-66
2022/04/18 07:46:49;;;;;;;1.10;1.08;;;18.10;35.40;;;;;;4926381;29;20665;-69
2022/04/18 07:49:16;;;;;;;1.50;1.40;;;17.50;35.20;;;;;;4922861;29;20229;-68
2022/04/18 07:51:42;;;;;;;1.30;1.30;;;18.20;36.40;;;;;;4919200;29;20240;-68
2022/04/18 07:54:12;;;;;;;1.50;1.30;;;19.00;35.60;;;;;;4918787;29;20240;-68
2022/04/18 07:56:39;;;;;;;1.15;1.05;;;18.40;35.90;;;;;;4919928;29;20243;-68
2022/04/18 07:59:06;;;;;;;1.05;1.05;;;18.50;35.10;;;;;;4918917;29;20261;-68
2022/04/18 08:01:33;;;;;;;0.95;0.93;;;19.60;34.40;;;;;;4919293;29;20255;-69
2022/04/18 08:04:01;;;;;;;1.30;1.20;;;20.00;34.10;;;;;;4919249;29;20307;-70
2022/04/18 08:06:28;;;;;;;1.30;1.30;;;19.90;33.70;;;;;;4919470;29;20205;-69
2022/04/18 08:08:55;;;;;;;2.00;1.08;;;20.00;33.60;;;;;;4919126;29;20229;-69
2022/04/18 08:11:23;;;;;;;2.05;1.25;;;19.20;34.70;;;;;;4918904;29;20215;-69
2022/04/18 08:13:50;;;;;;;1.35;1.23;;;18.50;35.20;;;;;;4919062;29;20201;-68
2022/04/18 08:16:18;;;;;;;0.95;0.90;;;17.10;36.30;;;;;;4918840;29;20304;-68
2022/04/18 08:18:46;;;;;;;1.20;1.20;;;15.90;38.10;;;;;;4918574;29;20225;-68
2022/04/18 08:21:15;;;;;;;1.20;1.17;;;15.20;37.40;;;;;;4918473;29;20227;-68
2022/04/18 08:23:42;;;;;;;1.05;1.05;;;14.10;37.80;;;;;;4918557;29;20256;-68
2022/04/18 08:26:10;;;;;;;1.45;1.23;;;13.30;38.10;;;;;;4918470;29;20204;-67
2022/04/18 08:28:38;;;;;;;3.15;1.30;;;12.60;39.00;;;;;;4918104;29;20768;-67
2022/04/18 08:31:05;;;;;;;1.65;1.55;;;12.30;40.10;;;;;;4918566;29;20312;-68
2022/04/18 08:33:32;;;;;;;1.77;1.67;;;12.20;39.70;;;;;;4917824;29;20202;-68
2022/04/18 08:36:00;;;;;;;1.40;1.30;;;11.90;40.50;;;;;;4918283;29;20206;-68
2022/04/18 08:38:27;;;;;;;1.73;1.30;;;11.60;40.50;;;;;;4918158;29;20229;-68
2022/04/18 08:40:57;;;;;;;1.58;1.52;;;11.30;40.00;;;;;;4918032;29;20226;-68
2022/04/18 08:43:24;;;;;;;1.52;1.42;;;11.10;40.90;;;;;;4917729;29;20666;-68
2022/04/18 08:45:52;;;;;;;1.70;1.60;;;11.00;41.60;;;;;;4917927;29;20213;-68
2022/04/18 08:53:46;;;;;;;2.00;1.60;;;10.70;41.80;;;;;;4886392;29;20684;-62
2022/04/18 08:56:13;;;;;;;1.50;1.40;;;10.80;41.90;;;;;;4917422;29;20300;-62
2022/04/18 08:58:41;;;;;;;1.75;1.33;;;10.80;42.20;;;;;;4917370;29;20778;-62
2022/04/18 09:01:09;;;;;;;1.92;1.30;;;10.90;42.70;;;;;;4917707;29;20296;-63
2022/04/18 09:03:36;;;;;;;1.77;1.63;;;11.00;42.70;;;;;;4917344;29;20256;-63
2022/04/18 09:06:10;;;;;;;2.90;1.77;;;10.90;41.90;;;;;;4917288;29;20640;-63
2022/04/18 09:08:44;;;;;;;1.75;1.65;;;11.00;42.30;;;;;;4917532;29;20205;-63
2022/04/18 09:11:11;;;;;;;1.45;1.42;;;11.00;42.10;;;;;;4917632;29;20193;-63
2022/04/18 09:13:43;;;;;;;1.45;1.35;;;11.10;41.70;;;;;;4917664;29;20665;-63
2022/04/18 09:16:17;;;;;;;1.58;1.48;;;11.20;40.00;;;;;;4917230;29;20519;-63
2022/04/18 09:18:44;;;;;;;1.40;1.10;;;11.20;40.90;;;;;;4917034;29;20677;-63
2022/04/18 09:21:11;;;;;;;2.10;2.00;;;11.20;40.80;;;;;;4917254;29;20244;-63
2022/04/18 09:23:38;;;;;;;1.85;1.75;;;11.40;41.10;;;;;;4917639;29;20245;-63
2022/04/18 09:26:08;;;;;;;4.30;3.13;;;11.50;40.30;;;;;;4918194;29;20232;-62
2022/04/18 09:28:36;;;;;;;3.05;2.85;;;11.50;40.20;;;;;;4917892;29;20197;-62
2022/04/18 09:31:05;;;;;;;6.88;3.40;;;11.60;40.10;;;;;;4917739;29;20300;-61
2022/04/18 09:33:43;;;;;;;2.10;2.00;;;11.60;39.70;;;;;;4917844;29;20300;-61
2022/04/18 09:36:12;;;;;;;1.90;1.80;;;11.50;40.20;;;;;;4919584;29;20296;-63
2022/04/18 09:38:41;;;;;;;1.23;1.23;;;11.50;39.30;;;;;;4918012;29;20678;-63
2022/04/18 09:41:08;;;;;;;1.88;1.58;;;11.60;39.60;;;;;;4917448;29;20231;-63
2022/04/18 09:43:39;;;;;;;1.67;1.58;;;11.70;38.40;;;;;;4917510;29;20297;-63
2022/04/18 09:46:08;;;;;;;1.30;1.25;;;11.80;39.20;;;;;;4917272;29;20259;-63
2022/04/18 09:48:36;;;;;;;1.30;1.30;;;11.80;40.40;;;;;;4917522;29;20208;-63
2022/04/18 09:51:14;;;;;;;1.55;1.45;;;11.90;40.20;;;;;;4917465;29;20304;-63
2022/04/18 09:53:43;;;;;;;1.35;1.23;;;11.80;38.90;;;;;;4917134;29;20737;-63
2022/04/18 09:56:15;;;;;;;1.50;1.40;;;11.90;37.50;;;;;;4917357;29;20261;-63
2022/04/18 09:58:41;;;;;;;2.38;1.40;;;11.90;36.70;;;;;;4917673;29;20224;-62
2022/04/18 10:01:09;;;;;;;1.90;1.38;;;12.00;36.90;;;;;;4917403;29;20214;-68
2022/04/18 10:03:37;;;;;;;1.80;1.70;;;12.00;37.40;;;;;;4917156;29;20209;-68
2022/04/18 10:06:06;;;;;;;2.55;1.73;;;12.00;38.30;;;;;;4917283;29;20240;-69
2022/04/18 10:08:33;;;;;;;1.65;1.55;;;12.10;37.80;;;;;;4916913;29;20684;-66
2022/04/18 10:11:02;;;;;;;2.05;1.73;;;12.20;37.80;;;;;;4917046;29;20277;-65
2022/04/18 10:13:30;;;;;;;1.58;1.30;;;12.30;38.70;;;;;;4917109;29;20288;-65
2022/04/18 10:15:59;;;;;;;1.70;1.60;;;12.40;38.20;;;;;;4916720;29;20695;-67
2022/04/18 10:18:27;;;;;;;2.13;1.65;;;12.30;38.60;;;;;;4918775;29;20316;-65
2022/04/18 10:21:21;;;;;;;1.73;1.55;;;12.20;39.50;;;;;;4919392;29;20237;-65
2022/04/18 10:24:20;;;;;;;1.42;1.42;;;12.10;39.50;;;;;;4919196;29;20190;-65
2022/04/18 10:27:15;;;;;;;1.85;1.75;;;12.20;37.90;;;;;;4919479;29;20197;-66
2022/04/18 10:29:49;;;;;;;2.40;1.70;;;12.20;38.00;;;;;;4917577;29;20229;-65
2022/04/18 10:32:21;;;;;;;1.60;1.50;;;12.40;38.70;;;;;;4918515;29;20194;-64
2022/04/18 10:34:50;;;;;;;2.70;1.38;;;12.50;39.30;;;;;;4917954;29;20558;-65
2022/04/18 10:37:23;;;;;;;1.35;1.35;;;12.60;40.20;;;;;;4917388;29;20209;-65
2022/04/18 16:00:55;;;;;;;2.65;2.47;;;14.30;45.30;;;;;;4925603;29;20240;-68
2022/04/18 16:03:22;;;;;;;1.98;1.88;;;14.30;39.30;;;;;;4918896;29;20638;-68
2022/04/18 16:05:48;;;;;;;1.70;1.70;;;14.30;40.10;;;;;;4918851;29;20304;-65
2022/04/18 16:08:15;;;;;;;1.92;1.83;;;14.30;40.10;;;;;;4919203;29;20296;-67
2022/04/18 16:10:42;;;;;;;2.03;1.92;;;14.20;39.70;;;;;;4918843;29;20316;-68
2022/04/18 16:13:09;;;;;;;2.40;2.20;;;14.20;40.40;;;;;;4919499;29;20209;-65
2022/04/18 16:15:36;;;;;;;2.40;2.30;;;14.20;40.20;;;;;;4918840;29;20231;-65
2022/04/18 16:18:05;;;;;;;2.10;2.00;;;14.20;40.20;;;;;;4918629;29;20225;-66
2022/04/18 16:20:31;;;;;;;1.77;1.67;;;14.10;40.30;;;;;;4918275;29;20595;-66
2022/04/18 16:22:58;;;;;;;2.00;1.90;;;14.10;40.90;;;;;;4917414;29;20629;-67
2022/04/18 16:25:25;;;;;;;1.90;1.80;;;14.10;40.80;;;;;;4918691;29;20290;-67
2022/04/18 16:27:52;;;;;;;1.65;1.58;;;14.10;40.50;;;;;;4918625;29;20205;-66
2022/04/18 16:33:05;;;;;;;1.58;1.48;;;14.10;41.00;;;;;;4918339;29;20212;-67
2022/04/18 16:35:32;;;;;;;1.52;1.50;;;14.00;41.20;;;;;;4918167;29;20665;-67
2022/04/18 16:37:59;;;;;;;4.00;1.70;;;14.00;41.20;;;;;;4918521;29;20300;-67
2022/04/18 16:40:26;;;;;;;2.30;2.03;;;13.90;41.20;;;;;;4918544;29;20333;-65
2022/04/18 16:45:52;;;;;;;1.50;1.40;;;13.80;41.70;;;;;;4918603;29;20184;-69
2022/04/18 16:48:20;;;;;;;1.60;1.50;;;13.70;41.60;;;;;;4918686;29;20185;-69
2022/04/18 16:50:48;;;;;;;2.00;1.90;;;13.70;42.00;;;;;;4918464;29;20225;-69
2022/04/18 16:53:15;;;;;;;1.63;1.52;;;13.70;41.90;;;;;;4918389;29;20590;-68
2022/04/18 16:55:42;;;;;;;1.45;1.45;;;13.60;41.80;;;;;;4918120;29;20296;-69
2022/04/18 16:58:10;;;;;;;1.65;1.55;;;13.60;41.90;;;;;;4918581;29;20240;-68
2022/04/18 17:00:37;;;;;;;1.65;1.65;;;13.50;41.70;;;;;;4918722;29;20232;-68
2022/04/18 17:03:04;;;;;;;1.15;1.15;;;13.50;41.90;;;;;;4918193;29;20304;-68
2022/04/18 17:05:32;;;;;;;1.67;1.02;;;13.50;41.90;;;;;;4918178;29;20279;-68
2022/04/18 17:07:59;;;;;;;1.65;1.55;;;13.40;41.80;;;;;;4917818;29;20653;-68
2022/04/18 17:10:26;;;;;;;1.00;1.00;;;13.40;42.50;;;;;;4918085;29;20225;-68
2022/04/18 17:12:53;;;;;;;1.98;1.88;;;13.30;42.50;;;;;;4918141;29;20296;-68
2022/04/18 17:15:20;;;;;;;1.48;1.38;;;13.30;42.50;;;;;;4918067;29;20301;-68
2022/04/18 17:17:47;;;;;;;1.95;1.70;;;13.20;42.80;;;;;;4918118;29;20208;-68
2022/04/18 17:20:13;;;;;;;1.10;1.10;;;13.20;43.40;;;;;;4918070;29;20234;-68
2022/04/18 17:22:44;;;;;;;1.05;0.90;;;13.10;43.80;;;;;;4918026;29;20211;-69
2022/04/18 17:25:11;;;;;;;0.90;0.90;;;13.00;44.00;;;;;;4917800;29;20193;-68
2022/04/18 17:27:38;;;;;;;0.90;0.90;;;12.90;45.40;;;;;;4917976;29;20213;-68
2022/04/18 17:30:06;;;;;;;0.95;0.95;;;12.80;45.50;;;;;;4917895;29;20308;-68
2022/04/18 17:32:33;;;;;;;2.00;1.90;;;12.70;45.80;;;;;;4917857;29;20292;-68
2022/04/18 17:35:03;;;;;;;1.50;1.50;;;12.70;46.20;;;;;;4917722;29;20237;-68
2022/04/18 17:37:29;;;;;;;1.25;1.25;;;12.60;47.70;;;;;;4917488;29;20257;-68
2022/04/18 17:39:58;;;;;;;1.02;1.02;;;12.50;48.20;;;;;;4917415;29;20323;-68
2022/04/18 17:42:24;;;;;;;1.10;1.10;;;12.40;48.30;;;;;;4917637;29;20296;-68
2022/04/18 17:44:51;;;;;;;1.67;1.65;;;12.30;49.50;;;;;;4917755;29;20296;-68
2022/04/18 17:47:18;;;;;;;1.75;1.65;;;12.20;49.20;;;;;;4917685;29;20217;-67
2022/04/18 17:49:45;;;;;;;1.58;1.58;;;12.20;50.10;;;;;;4918019;29;20218;-67
2022/04/18 17:52:12;;;;;;;1.83;1.73;;;12.10;50.20;;;;;;4917887;29;20243;-67
2022/04/18 17:57:25;;;;;;;1.70;1.40;;;11.90;50.80;;;;;;4917891;29;20193;-67
2022/04/18 17:59:52;;;;;;;2.20;2.10;;;11.90;51.30;;;;;;4917699;29;20229;-68
2022/04/18 18:02:19;;;;;;;2.33;2.20;;;11.80;51.00;;;;;;4917255;29;20219;-68
2022/04/18 18:04:46;;;;;;;2.33;2.22;;;11.70;52.10;;;;;;4917796;29;20206;-68
2022/04/18 18:07:13;;;;;;;1.70;1.60;;;11.60;51.30;;;;;;4921350;29;20220;-67
2022/04/18 18:09:39;;;;;;;1.50;1.50;;;11.50;51.70;;;;;;4921127;29;20229;-67
2022/04/18 18:12:07;;;;;;;1.38;1.27;;;11.40;52.10;;;;;;4921628;29;20292;-67
2022/04/18 18:14:35;;;;;;;1.30;1.30;;;11.30;53.00;;;;;;4921677;29;20292;-68
2022/04/18 18:17:02;;;;;;;1.40;1.40;;;11.10;54.60;;;;;;4921330;29;20212;-66
2022/04/18 18:19:29;;;;;;;1.20;1.20;;;11.00;55.60;;;;;;4921173;29;20240;-67
2022/04/18 18:21:56;;;;;;;1.00;1.00;;;10.80;56.00;;;;;;4921308;29;20599;-65
2022/04/18 18:24:24;;;;;;;1.10;1.10;;;10.70;57.10;;;;;;4921296;29;20212;-66
2022/04/18 18:26:51;;;;;;;0.80;0.80;;;10.50;58.10;;;;;;4920878;29;20627;-60
2022/04/18 18:29:19;;;;;;;0.90;0.90;;;10.40;59.20;;;;;;4920836;29;20221;-60
2022/04/18 18:31:47;;;;;;;0.70;0.70;;;10.30;60.80;;;;;;4920800;29;20673;-66
2022/04/18 18:34:14;;;;;;;1.00;1.00;;;10.20;62.70;;;;;;4920513;29;20694;-66
2022/04/18 18:36:40;;;;;;;0.70;0.70;;;10.00;64.60;;;;;;4920517;29;20669;-71
2022/04/18 18:39:07;;;;;;;0.65;0.57;;;9.90;66.20;;;;;;4920733;29;20316;-72
2022/04/18 18:41:34;;;;;;;0.80;0.80;;;9.80;68.20;;;;;;4920843;29;20240;-72
2022/04/18 18:44:01;;;;;;;0.43;0.43;;;9.70;69.60;;;;;;4920737;29;20288;-72
2022/04/18 18:46:28;;;;;;;0.60;0.60;;;9.70;72.30;;;;;;4920696;29;20633;-73
2022/04/18 18:48:56;;;;;;;0.70;0.70;;;9.50;73.90;;;;;;4920708;29;20223;-72
2022/04/18 18:54:08;;;;;;;0.63;0.63;;;9.30;77.30;;;;;;4920610;29;20317;-72
2022/04/18 18:56:35;;;;;;;0.65;0.65;;;9.20;78.60;;;;;;4920891;29;20205;-72
2022/04/18 18:59:01;;;;;;;0.95;0.90;;;9.10;80.20;;;;;;4920250;29;20232;-72
2022/04/18 19:01:28;;;;;;;0.70;0.70;;;9.00;81.40;;;;;;4920147;29;20648;-72
2022/04/18 19:03:57;;;;;;;0.93;0.73;;;8.90;83.60;;;;;;4920417;29;20209;-72
2022/04/18 19:06:23;;;;;;;0.50;0.50;;;8.80;85.40;;;;;;4920250;29;20296;-72
2022/04/18 19:08:50;;;;;;;0.70;0.70;;;8.60;87.30;;;;;;4919814;29;20731;-72
2022/04/18 19:11:19;;;;;;;0.70;0.70;;;8.60;90.10;;;;;;4920494;29;20296;-71
2022/04/18 19:13:50;;;;;;;0.70;0.70;;;8.40;88.30;;;;;;4920543;29;20206;-72
2022/04/18 19:16:17;;;;;;;1.08;1.08;;;8.30;89.60;;;;;;4919937;29;20186;-72
2022/04/18 19:26:57;;;;;;;0.70;0.70;;;7.60;94.60;;;;;;4920113;29;20189;-67
2022/04/18 19:29:24;;;;;;;0.63;0.63;;;7.90;91.90;;;;;;4919814;29;20312;-67
2022/04/18 19:31:51;;;;;;;0.90;0.90;;;7.80;94.60;;;;;;4919710;29;20211;-67
2022/04/18 19:34:20;;;;;;;0.95;0.73;;;7.80;94.10;;;;;;4919855;29;20205;-66
2022/04/18 19:36:48;;;;;;;0.70;0.70;;;7.70;94.60;;;;;;4919566;29;20233;-68
2022/04/18 19:39:15;;;;;;;0.68;0.68;;;7.70;94.70;;;;;;4919990;29;20233;-67
2022/04/18 19:41:43;;;;;;;0.80;0.80;;;7.60;94.20;;;;;;4920205;29;20205;-67
2022/04/18 19:44:10;;;;;;;0.82;0.82;;;7.50;94.90;;;;;;4920071;29;20205;-68
2022/04/18 19:46:37;;;;;;;0.80;0.80;;;7.50;95.80;;;;;;4919663;29;20677;-68
2022/04/18 19:49:04;;;;;;;0.70;0.70;;;7.40;96.50;;;;;;4919944;29;20221;-68
2022/04/18 19:51:33;;;;;;;0.63;0.63;;;7.40;97.20;;;;;;4919908;29;20300;-67
2022/04/18 19:54:02;;;;;;;0.70;0.70;;;7.30;97.70;;;;;;4919635;29;20206;-66
2022/04/18 19:56:32;;;;;;;0.90;0.90;;;7.30;99.00;;;;;;4919638;29;20665;-67
2022/04/18 19:58:59;;;;;;;0.68;0.68;;;7.20;97.30;;;;;;4920054;29;20297;-68
2022/04/18 20:01:27;;;;;;;0.70;0.70;;;7.10;99.40;;;;;;4919586;29;20213;-68
2022/04/18 20:03:55;;;;;;;0.70;0.70;;;7.10;98.90;;;;;;4919427;29;20208;-68
2022/04/18 20:06:22;;;;;;;0.70;0.70;;;7.00;99.90;;;;;;4919676;29;20217;-68
2022/04/18 20:08:50;;;;;;;0.80;0.80;;;6.90;99.90;;;;;;4919314;29;20225;-67
2022/04/18 20:11:19;;;;;;;0.77;0.70;;;6.90;99.90;;;;;;4919297;29;20240;-67
2022/04/18 20:13:48;;;;;;;0.80;0.80;;;6.80;99.90;;;;;;4919215;29;20292;-68
2022/04/18 20:16:16;;;;;;;0.65;0.65;;;6.80;99.90;;;;;;4918802;29;20261;-67
2022/04/18 20:18:43;;;;;;;0.70;0.70;;;6.80;99.90;;;;;;4919189;29;20205;-67
2022/04/18 20:21:10;;;;;;;0.68;0.68;;;6.70;99.90;;;;;;4919051;29;20228;-67
2022/04/18 20:23:41;;;;;;;0.70;0.70;;;6.70;99.90;;;;;;4919266;29;20296;-67
2022/04/18 20:26:12;;;;;;;0.70;0.70;;;6.60;99.90;;;;;;4919085;29;20190;-65
2022/04/18 20:28:40;;;;;;;0.73;0.73;;;6.60;99.90;;;;;;4918311;29;20217;-65
2022/04/18 20:31:08;;;;;;;0.50;0.50;;;6.50;99.90;;;;;;4918700;29;20581;-65
2022/04/18 20:33:35;;;;;;;0.60;0.60;;;6.50;99.90;;;;;;4918841;29;20260;-65
2022/04/18 20:36:01;;;;;;;0.70;0.70;;;6.50;99.90;;;;;;4919743;29;20213;-64
2022/04/18 20:38:28;;;;;;;0.60;0.60;;;6.40;99.90;;;;;;4921782;29;20240;-66
2022/04/18 20:40:55;;;;;;;0.60;0.60;;;6.30;99.90;;;;;;4919506;29;20312;-65
2022/04/18 20:43:22;;;;;;;0.60;0.60;;;6.30;99.90;;;;;;4918789;29;20205;-65
2022/04/18 20:45:50;;;;;;;0.70;0.70;;;6.30;99.90;;;;;;4919095;29;20205;-65
2022/04/18 20:48:31;;;;;;;0.60;0.60;;;6.20;99.90;;;;;;4919339;29;20296;-65
2022/04/18 20:50:59;;;;;;;0.80;0.80;;;6.20;99.90;;;;;;4918569;29;20196;-65
2022/04/18 20:58:54;;;;;;;0.90;0.90;;;6.00;99.90;;;;;;4918487;29;20629;-66
2022/04/18 21:01:24;;;;;;;0.68;0.68;;;5.90;99.90;;;;;;4917903;29;20369;-65
2022/04/18 21:03:50;;;;;;;0.70;0.70;;;5.90;99.90;;;;;;4918362;29;20272;-66
2022/04/18 21:06:19;;;;;;;0.98;0.98;;;5.80;99.90;;;;;;4918578;29;20205;-67
2022/04/18 21:08:47;;;;;;;0.80;0.80;;;5.80;99.90;;;;;;4918304;29;20205;-66
2022/04/18 21:11:14;;;;;;;0.80;0.80;;;5.80;99.90;;;;;;4918207;29;20201;-67
2022/04/18 21:13:42;;;;;;;0.80;0.80;;;5.70;99.90;;;;;;4919493;29;20233;-71
2022/04/18 21:16:08;;;;;;;0.75;0.75;;;5.70;99.90;;;;;;4918908;29;20210;-73
2022/04/18 21:18:37;;;;;;;0.90;0.90;;;5.60;99.90;;;;;;4919221;29;20647;-72
2022/04/18 21:21:04;;;;;;;0.90;0.90;;;5.60;99.90;;;;;;4919416;29;20600;-72
2022/04/18 21:23:31;;;;;;;0.90;0.90;;;5.60;99.90;;;;;;4919603;29;20293;-72
2022/04/18 21:25:58;;;;;;;0.90;0.90;;;5.50;99.90;;;;;;4920936;29;20297;-73
2022/04/18 21:28:25;;;;;;;1.08;1.08;;;5.50;99.90;;;;;;4919021;29;20266;-72
2022/04/18 21:30:52;;;;;;;0.80;0.80;;;5.50;99.90;;;;;;4918934;29;20273;-72
2022/04/18 21:33:18;;;;;;;0.85;0.85;;;5.40;99.90;;;;;;4918999;29;20721;-71
